createdAt,value
2023-05-22T00:02:11.183Z,15.59
2023-05-22T00:04:40.016Z,15.61
2023-05-22T00:07:09.706Z,15.57
2023-05-22T00:09:38.203Z,15.63
2023-05-22T00:12:07.506Z,15.59
2023-05-22T00:14:35.593Z,15.57
2023-05-22T00:17:04.573Z,15.55
2023-05-22T00:19:33.118Z,15.54
2023-05-22T00:22:01.298Z,15.55
2023-05-22T00:24:31.968Z,15.54
2023-05-22T00:27:00.554Z,15.57
2023-05-22T00:29:28.958Z,15.55
2023-05-22T00:31:58.833Z,15.57
2023-05-22T00:34:27.508Z,15.56
2023-05-22T00:36:55.865Z,15.54
2023-05-22T00:39:24.184Z,15.55
2023-05-22T00:41:55.167Z,15.52
2023-05-22T00:44:25.103Z,15.49
2023-05-22T00:46:53.734Z,15.44
2023-05-22T00:49:24.167Z,15.38
2023-05-22T00:51:52.364Z,15.38
2023-05-22T00:54:20.668Z,15.39
2023-05-22T00:56:49.727Z,15.29
2023-05-22T00:59:20.974Z,15.24
2023-05-22T01:01:50.325Z,15.22
2023-05-22T01:04:19.212Z,15.11
2023-05-22T01:06:50.092Z,15.05
2023-05-22T01:09:18.534Z,15.00
2023-05-22T01:11:59.754Z,14.94
2023-05-22T01:14:37.684Z,14.88
2023-05-22T01:17:13.802Z,14.85
2023-05-22T01:20:01.611Z,14.86
2023-05-22T01:22:50.033Z,14.87
2023-05-22T01:25:37.255Z,14.85
2023-05-22T01:28:31.457Z,14.79
2023-05-22T01:31:03.621Z,14.76
2023-05-22T01:33:35.144Z,14.80
2023-05-22T01:36:04.667Z,14.89
2023-05-22T01:38:35.180Z,14.85
2023-05-22T01:41:03.956Z,14.80
2023-05-22T01:43:32.856Z,14.72
2023-05-22T01:46:03.801Z,14.63
2023-05-22T01:48:33.133Z,14.57
2023-05-22T01:51:08.776Z,14.50
2023-05-22T01:53:45.051Z,14.48
2023-05-22T01:56:16.481Z,14.41
2023-05-22T01:58:52.772Z,14.34
2023-05-22T02:01:25.452Z,14.33
2023-05-22T02:03:58.616Z,14.29
2023-05-22T02:06:29.914Z,14.24
2023-05-22T02:08:58.655Z,14.20
2023-05-22T02:11:29.515Z,14.19
2023-05-22T02:13:58.412Z,14.15
2023-05-22T02:16:28.856Z,14.15
2023-05-22T02:19:06.335Z,14.15
2023-05-22T02:21:35.750Z,14.15
2023-05-22T02:24:04.995Z,14.19
2023-05-22T02:26:33.189Z,14.19
2023-05-22T02:29:02.520Z,14.22
2023-05-22T02:31:33.636Z,14.26
2023-05-22T02:34:05.452Z,14.25
2023-05-22T02:36:34.432Z,14.21
2023-05-22T02:39:03.079Z,14.17
2023-05-22T02:41:31.913Z,14.10
2023-05-22T02:44:00.049Z,14.04
2023-05-22T02:46:28.426Z,14.02
2023-05-22T02:48:57.966Z,13.97
2023-05-22T02:51:26.254Z,13.92
2023-05-22T02:53:54.496Z,13.87
2023-05-22T02:56:24.331Z,13.85
2023-05-22T02:58:52.346Z,13.85
2023-05-22T03:01:21.828Z,13.77
2023-05-22T03:03:50.818Z,13.72
2023-05-22T03:06:21.569Z,13.71
2023-05-22T03:08:49.770Z,13.68
2023-05-22T03:11:18.355Z,13.66
2023-05-22T03:13:46.952Z,13.63
2023-05-22T03:16:15.666Z,13.60
2023-05-22T03:18:46.747Z,13.57
2023-05-22T03:21:16.254Z,13.57
2023-05-22T03:23:46.580Z,13.51
2023-05-22T03:26:15.160Z,13.51
2023-05-22T03:28:43.596Z,13.51
2023-05-22T03:31:13.349Z,13.50
2023-05-22T03:33:57.476Z,13.45
2023-05-22T03:36:26.251Z,13.44
2023-05-22T03:38:56.742Z,13.41
2023-05-22T03:41:25.478Z,13.41
2023-05-22T03:43:53.883Z,13.39
2023-05-22T03:46:23.561Z,13.40
2023-05-22T03:48:52.358Z,13.41
2023-05-22T03:51:20.593Z,13.41
2023-05-22T03:53:50.747Z,13.43
2023-05-22T03:56:21.079Z,13.47
2023-05-22T03:58:50.546Z,13.49
2023-05-22T04:01:18.846Z,13.53
2023-05-22T04:03:47.423Z,13.58
2023-05-22T04:06:15.981Z,13.64
2023-05-22T04:08:44.504Z,13.68
2023-05-22T04:11:15.693Z,13.73
2023-05-22T04:13:46.677Z,13.79
2023-05-22T04:16:17.498Z,13.84
2023-05-22T04:18:48.773Z,13.90
2023-05-22T04:21:17.576Z,13.93
2023-05-22T04:23:47.944Z,14.00
2023-05-22T04:26:18.073Z,14.08
2023-05-22T04:28:47.699Z,14.18
2023-05-22T04:31:16.302Z,14.24
2023-05-22T04:33:48.235Z,14.32
2023-05-22T04:36:17.672Z,14.42
2023-05-22T04:38:47.584Z,14.50
2023-05-22T04:41:18.167Z,14.53
2023-05-22T04:43:48.465Z,14.53
2023-05-22T04:46:17.160Z,14.55
2023-05-22T04:48:47.430Z,14.59
2023-05-22T04:51:17.517Z,14.62
2023-05-22T04:53:49.780Z,14.71
2023-05-22T04:56:31.833Z,14.81
2023-05-22T04:59:09.583Z,14.86
2023-05-22T05:01:39.889Z,14.90
2023-05-22T05:04:08.311Z,15.04
2023-05-22T05:06:38.054Z,15.15
2023-05-22T05:09:07.025Z,15.18
2023-05-22T05:11:38.231Z,15.23
2023-05-22T05:14:16.286Z,15.36
2023-05-22T05:16:48.200Z,15.52
2023-05-22T05:19:33.193Z,15.67
2023-05-22T05:22:07.464Z,15.75
2023-05-22T05:24:36.265Z,15.89
2023-05-22T05:27:05.154Z,16.02
2023-05-22T05:29:35.044Z,16.13
2023-05-22T05:32:15.290Z,16.18
2023-05-22T05:34:58.865Z,16.25
2023-05-22T05:37:43.706Z,16.36
2023-05-22T05:40:14.637Z,16.52
2023-05-22T05:42:48.148Z,16.64
2023-05-22T05:45:20.418Z,16.85
2023-05-22T05:47:48.457Z,16.92
2023-05-22T05:50:17.655Z,17.01
2023-05-22T05:52:47.803Z,17.19
2023-05-22T05:55:23.358Z,17.37
2023-05-22T05:57:52.497Z,17.52
2023-05-22T06:00:29.120Z,17.70
2023-05-22T06:02:59.964Z,17.74
2023-05-22T06:05:51.519Z,17.65
2023-05-22T06:08:26.082Z,17.80
2023-05-22T06:10:54.657Z,17.99
2023-05-22T06:13:39.814Z,18.15
2023-05-22T06:16:09.759Z,18.24
2023-05-22T06:18:38.263Z,18.68
2023-05-22T06:21:07.246Z,18.82
2023-05-22T06:23:38.108Z,19.04
2023-05-22T06:26:06.793Z,19.21
2023-05-22T06:28:39.653Z,19.20
2023-05-22T06:31:09.963Z,19.39
2023-05-22T06:33:44.201Z,19.67
2023-05-22T06:36:12.730Z,20.02
2023-05-22T06:38:42.487Z,20.28
2023-05-22T06:41:23.877Z,20.09
2023-05-22T06:43:52.338Z,20.44
2023-05-22T06:46:29.983Z,20.47
2023-05-22T06:49:07.635Z,20.72
2023-05-22T06:51:52.021Z,20.48
2023-05-22T06:54:21.561Z,20.70
2023-05-22T06:56:53.269Z,20.97
2023-05-22T06:59:22.143Z,21.26
2023-05-22T07:01:51.979Z,21.40
2023-05-22T07:04:28.216Z,21.52
2023-05-22T07:07:02.483Z,21.72
2023-05-22T07:09:31.226Z,21.60
2023-05-22T07:11:59.827Z,21.73
2023-05-22T07:14:29.236Z,21.83
2023-05-22T07:16:59.154Z,21.99
2023-05-22T07:19:32.252Z,22.14
2023-05-22T07:22:04.331Z,22.23
2023-05-22T07:24:36.013Z,22.08
2023-05-22T07:27:05.895Z,21.81
2023-05-22T07:29:35.484Z,21.68
2023-05-22T07:32:07.459Z,21.75
2023-05-22T07:34:37.345Z,21.88
2023-05-22T07:37:09.606Z,21.79
2023-05-22T07:39:38.925Z,21.82
2023-05-22T07:42:08.816Z,22.11
2023-05-22T07:44:44.044Z,22.52
2023-05-22T07:47:16.434Z,22.69
2023-05-22T07:49:45.119Z,23.10
2023-05-22T07:52:13.549Z,23.40
2023-05-22T07:54:43.485Z,23.36
2023-05-22T07:57:14.115Z,23.68
2023-05-22T07:59:44.197Z,23.84
2023-05-22T08:02:14.821Z,23.89
2023-05-22T08:04:44.869Z,24.00
2023-05-22T08:07:13.730Z,24.26
2023-05-22T08:09:41.985Z,24.01
2023-05-22T08:12:10.920Z,23.75
2023-05-22T08:14:40.221Z,24.34
2023-05-22T08:17:08.836Z,24.56
2023-05-22T08:19:37.288Z,24.58
2023-05-22T08:22:07.519Z,24.56
2023-05-22T08:24:35.952Z,24.61
2023-05-22T08:27:05.753Z,24.69
2023-05-22T08:29:34.313Z,24.59
2023-05-22T08:32:02.653Z,24.72
2023-05-22T08:34:32.477Z,24.81
2023-05-22T08:37:01.200Z,24.79
2023-05-22T08:39:31.352Z,24.90
2023-05-22T08:42:00.838Z,24.75
2023-05-22T08:44:29.304Z,24.59
2023-05-22T08:46:59.671Z,24.49
2023-05-22T08:49:29.254Z,24.21
2023-05-22T08:52:04.349Z,24.27
2023-05-22T08:54:37.861Z,24.32
2023-05-22T08:57:08.135Z,24.12
2023-05-22T08:59:37.145Z,24.13
2023-05-22T09:02:06.908Z,24.12
2023-05-22T09:04:36.531Z,24.11
2023-05-22T09:07:06.653Z,24.49
2023-05-22T09:09:39.019Z,25.26
2023-05-22T09:12:10.504Z,25.18
2023-05-22T09:14:42.151Z,24.89
2023-05-22T09:17:16.312Z,25.19
2023-05-22T09:19:46.961Z,25.09
2023-05-22T09:22:16.846Z,24.85
2023-05-22T09:24:47.488Z,24.96
2023-05-22T09:27:15.920Z,25.40
2023-05-22T09:29:50.922Z,26.05
2023-05-22T09:32:20.469Z,26.29
2023-05-22T09:34:48.865Z,26.32
2023-05-22T09:37:18.201Z,25.92
2023-05-22T09:39:51.639Z,26.33
2023-05-22T09:42:20.900Z,26.68
2023-05-22T09:44:50.132Z,27.08
2023-05-22T09:47:19.226Z,27.27
2023-05-22T09:49:47.995Z,27.68
2023-05-22T09:52:19.218Z,27.98
2023-05-22T09:54:55.496Z,28.48
2023-05-22T09:57:26.669Z,28.18
2023-05-22T09:59:58.419Z,27.90
2023-05-22T10:02:28.554Z,27.59
2023-05-22T10:04:57.539Z,27.30
2023-05-22T10:07:31.410Z,27.77
2023-05-22T10:10:08.794Z,27.54
2023-05-22T10:12:43.521Z,27.23
2023-05-22T10:15:12.842Z,27.01
2023-05-22T10:17:42.165Z,26.94
2023-05-22T10:20:11.940Z,26.95
2023-05-22T10:22:40.188Z,27.49
2023-05-22T10:25:13.067Z,28.23
2023-05-22T10:27:41.890Z,27.82
2023-05-22T10:30:20.732Z,27.55
2023-05-22T10:33:14.010Z,28.58
2023-05-22T10:35:45.478Z,29.08
2023-05-22T10:38:29.178Z,29.98
2023-05-22T10:41:00.263Z,30.60
2023-05-22T10:43:31.364Z,30.19
2023-05-22T10:46:07.416Z,30.29
2023-05-22T10:48:39.715Z,30.96
2023-05-22T10:51:08.751Z,30.04
2023-05-22T10:53:38.163Z,30.33
2023-05-22T10:56:15.802Z,31.15
2023-05-22T10:58:46.606Z,31.40
2023-05-22T11:01:18.169Z,31.23
2023-05-22T11:03:57.263Z,30.47
2023-05-22T11:06:36.235Z,30.34
2023-05-22T11:09:19.736Z,31.24
2023-05-22T11:12:18.247Z,31.67
2023-05-22T11:14:51.465Z,31.78
2023-05-22T11:17:23.226Z,31.13
2023-05-22T11:19:59.672Z,30.46
2023-05-22T11:22:35.632Z,31.16
2023-05-22T11:25:11.519Z,30.91
2023-05-22T11:27:42.385Z,31.04
2023-05-22T11:30:12.005Z,30.94
2023-05-22T11:32:44.389Z,31.10
2023-05-22T11:35:15.303Z,31.50
2023-05-22T11:37:43.661Z,31.47
2023-05-22T11:40:14.849Z,31.78
2023-05-22T11:42:45.671Z,32.37
2023-05-22T11:45:14.350Z,32.34
2023-05-22T11:47:43.615Z,32.65
2023-05-22T11:50:13.099Z,32.43
2023-05-22T11:52:44.178Z,31.95
2023-05-22T11:55:12.644Z,32.49
2023-05-22T11:57:43.394Z,32.78
2023-05-22T12:00:15.217Z,32.29
2023-05-22T12:02:47.628Z,32.81
2023-05-22T12:05:17.120Z,33.44
2023-05-22T12:07:45.652Z,32.18
2023-05-22T12:10:17.443Z,32.12
2023-05-22T12:12:46.155Z,32.82
2023-05-22T12:15:20.084Z,33.30
2023-05-22T12:17:48.798Z,33.51
2023-05-22T12:20:17.249Z,32.77
2023-05-22T12:22:46.947Z,33.19
2023-05-22T12:25:17.402Z,32.78
2023-05-22T12:27:46.765Z,31.95
2023-05-22T12:30:17.954Z,32.66
2023-05-22T12:32:50.203Z,32.94
2023-05-22T12:35:19.517Z,32.48
2023-05-22T12:37:51.813Z,32.90
2023-05-22T12:40:20.720Z,33.10
2023-05-22T12:42:49.675Z,31.77
2023-05-22T12:45:19.601Z,32.73
2023-05-22T12:47:48.188Z,32.69
2023-05-22T12:50:16.408Z,32.89
2023-05-22T12:52:44.476Z,32.09
2023-05-22T12:55:12.725Z,31.97
2023-05-22T12:57:41.240Z,32.02
2023-05-22T13:00:10.437Z,32.69
2023-05-22T13:02:40.282Z,32.43
2023-05-22T13:05:08.987Z,32.42
2023-05-22T13:07:38.368Z,32.23
2023-05-22T13:10:07.584Z,31.82
2023-05-22T13:12:36.310Z,31.56
2023-05-22T13:15:05.914Z,32.25
2023-05-22T13:17:33.974Z,32.17
2023-05-22T13:20:04.360Z,32.20
2023-05-22T13:22:32.772Z,32.31
2023-05-22T13:25:01.201Z,32.60
2023-05-22T13:27:30.722Z,32.84
2023-05-22T13:30:01.445Z,32.41
2023-05-22T13:32:29.848Z,32.82
2023-05-22T13:34:58.129Z,33.29
2023-05-22T13:37:27.812Z,33.37
2023-05-22T13:39:56.281Z,33.75
2023-05-22T13:42:24.926Z,33.16
2023-05-22T13:44:52.984Z,32.75
2023-05-22T13:47:22.833Z,32.85
2023-05-22T13:49:51.517Z,32.68
2023-05-22T13:52:20.050Z,32.56
2023-05-22T13:54:50.202Z,32.93
2023-05-22T13:57:18.438Z,32.84
2023-05-22T13:59:46.770Z,33.26
2023-05-22T14:02:15.157Z,33.23
2023-05-22T14:04:43.413Z,33.31
2023-05-22T14:07:11.910Z,33.48
2023-05-22T14:09:41.563Z,32.67
2023-05-22T14:12:11.126Z,32.44
2023-05-22T14:14:39.315Z,32.11
2023-05-22T14:17:09.480Z,31.81
2023-05-22T14:19:39.859Z,31.53
2023-05-22T14:22:08.152Z,31.68
2023-05-22T14:24:36.550Z,31.64
2023-05-22T14:27:05.670Z,31.18
2023-05-22T14:29:35.354Z,30.88
2023-05-22T14:32:05.281Z,31.35
2023-05-22T14:34:33.773Z,31.45
2023-05-22T14:37:01.992Z,31.38
2023-05-22T14:39:30.560Z,31.62
2023-05-22T14:41:58.994Z,31.46
2023-05-22T14:44:27.254Z,31.67
2023-05-22T14:46:57.392Z,31.49
2023-05-22T14:49:25.543Z,31.47
2023-05-22T14:51:54.577Z,31.45
2023-05-22T14:54:23.783Z,31.11
2023-05-22T14:56:52.271Z,30.80
2023-05-22T14:59:20.862Z,30.79
2023-05-22T15:01:50.662Z,30.89
2023-05-22T15:04:20.385Z,30.57
2023-05-22T15:06:48.660Z,30.63
2023-05-22T15:09:18.264Z,30.51
2023-05-22T15:11:49.495Z,30.61
2023-05-22T15:14:17.958Z,30.07
2023-05-22T15:16:46.542Z,30.59
2023-05-22T15:19:14.969Z,30.65
2023-05-22T15:21:44.750Z,30.55
2023-05-22T15:24:13.080Z,30.41
2023-05-22T15:26:41.657Z,30.10
2023-05-22T15:29:11.607Z,29.89
2023-05-22T15:31:42.681Z,29.27
2023-05-22T15:34:10.900Z,29.12
2023-05-22T15:36:40.505Z,29.12
2023-05-22T15:39:10.841Z,29.05
2023-05-22T15:41:39.355Z,28.79
2023-05-22T15:44:10.832Z,28.72
2023-05-22T15:46:39.567Z,28.69
2023-05-22T15:49:15.161Z,28.82
2023-05-22T15:51:43.620Z,28.39
2023-05-22T15:54:18.202Z,27.82
2023-05-22T15:56:46.588Z,27.54
2023-05-22T15:59:15.483Z,26.79
2023-05-22T16:01:44.111Z,26.58
2023-05-22T16:04:12.574Z,26.41
2023-05-22T16:06:41.010Z,26.69
2023-05-22T16:09:09.998Z,26.91
2023-05-22T16:11:39.588Z,26.88
2023-05-22T16:14:07.752Z,26.33
2023-05-22T16:16:35.953Z,26.56
2023-05-22T16:19:04.593Z,26.53
2023-05-22T16:21:32.854Z,26.75
2023-05-22T16:24:00.995Z,26.71
2023-05-22T16:26:33.385Z,26.56
2023-05-22T16:29:08.683Z,26.48
2023-05-22T16:31:41.045Z,26.62
2023-05-22T16:34:09.434Z,26.08
2023-05-22T16:36:37.509Z,26.01
2023-05-22T16:39:07.815Z,26.08
2023-05-22T16:41:38.318Z,26.04
2023-05-22T16:44:08.239Z,26.04
2023-05-22T16:46:36.499Z,25.87
2023-05-22T16:49:04.691Z,25.42
2023-05-22T16:51:32.845Z,24.95
2023-05-22T16:54:01.064Z,24.67
2023-05-22T16:56:29.320Z,24.65
2023-05-22T16:58:57.526Z,24.44
2023-05-22T17:01:27.685Z,24.36
2023-05-22T17:03:58.134Z,24.43
2023-05-22T17:06:27.723Z,24.39
2023-05-22T17:08:56.006Z,24.20
2023-05-22T17:11:26.226Z,24.05
2023-05-22T17:13:54.647Z,24.07
2023-05-22T17:16:23.018Z,23.93
2023-05-22T17:18:54.818Z,23.89
2023-05-22T17:21:24.193Z,23.91
2023-05-22T17:23:52.486Z,23.65
2023-05-22T17:26:21.089Z,23.43
2023-05-22T17:28:49.334Z,23.33
2023-05-22T17:31:17.453Z,23.54
2023-05-22T17:33:45.806Z,23.33
2023-05-22T17:36:15.467Z,23.12
2023-05-22T17:38:44.531Z,23.14
2023-05-22T17:41:12.835Z,23.18
2023-05-22T17:43:41.393Z,22.99
2023-05-22T17:46:09.832Z,22.85
2023-05-22T17:48:38.415Z,22.84
2023-05-22T17:51:06.693Z,22.63
2023-05-22T17:53:37.745Z,22.45
2023-05-22T17:56:08.408Z,22.25
2023-05-22T17:58:36.787Z,22.09
2023-05-22T18:01:05.038Z,22.08
2023-05-22T18:03:33.946Z,21.91
2023-05-22T18:06:02.756Z,21.96
2023-05-22T18:08:31.570Z,21.97
2023-05-22T18:11:01.240Z,21.90
2023-05-22T18:13:29.697Z,21.94
2023-05-22T18:15:57.879Z,21.90
2023-05-22T18:18:27.435Z,21.79
2023-05-22T18:20:56.236Z,21.80
2023-05-22T18:23:24.554Z,21.73
2023-05-22T18:25:54.783Z,21.80
2023-05-22T18:28:26.505Z,21.61
2023-05-22T18:30:55.053Z,21.70
2023-05-22T18:33:25.598Z,21.69
2023-05-22T18:35:54.146Z,21.60
2023-05-22T18:38:22.529Z,21.54
2023-05-22T18:40:52.075Z,21.64
2023-05-22T18:43:23.813Z,21.44
2023-05-22T18:45:53.368Z,21.46
2023-05-22T18:48:22.092Z,21.42
2023-05-22T18:50:50.612Z,21.28
2023-05-22T18:53:19.119Z,21.21
2023-05-22T18:55:48.614Z,21.16
2023-05-22T18:58:17.234Z,21.12
2023-05-22T19:00:45.709Z,20.98
2023-05-22T19:03:15.487Z,20.96
2023-05-22T19:05:43.984Z,20.81
2023-05-22T19:08:12.285Z,20.80
2023-05-22T19:10:41.920Z,20.75
2023-05-22T19:13:11.594Z,20.67
2023-05-22T19:15:39.899Z,20.51
2023-05-22T19:18:08.207Z,20.40
2023-05-22T19:20:38.196Z,20.40
2023-05-22T19:23:07.215Z,20.24
2023-05-22T19:25:36.116Z,20.13
2023-05-22T19:28:05.144Z,19.97
2023-05-22T19:30:33.423Z,19.90
2023-05-22T19:33:01.716Z,19.79
2023-05-22T19:35:30.362Z,19.79
2023-05-22T19:37:59.889Z,19.67
2023-05-22T19:40:28.569Z,19.54
2023-05-22T19:42:57.955Z,19.48
2023-05-22T19:45:27.202Z,19.46
2023-05-22T19:47:56.830Z,19.45
2023-05-22T19:50:25.790Z,19.39
2023-05-22T19:52:54.386Z,19.33
2023-05-22T19:55:24.173Z,19.23
2023-05-22T19:57:52.603Z,19.15
2023-05-22T20:00:21.810Z,19.17
2023-05-22T20:02:50.397Z,19.08
2023-05-22T20:05:18.709Z,19.07
2023-05-22T20:07:48.569Z,19.08
2023-05-22T20:10:16.883Z,19.12
2023-05-22T20:12:47.200Z,19.12
2023-05-22T20:15:17.759Z,19.09
2023-05-22T20:17:47.523Z,19.04
2023-05-22T20:20:15.996Z,19.00
2023-05-22T20:22:44.775Z,18.93
2023-05-22T20:25:13.407Z,18.88
2023-05-22T20:27:41.717Z,18.87
2023-05-22T20:30:13.409Z,18.87
2023-05-22T20:32:42.649Z,18.85
2023-05-22T20:35:11.395Z,18.78
2023-05-22T20:37:41.734Z,18.67
2023-05-22T20:40:11.100Z,18.58
2023-05-22T20:42:43.691Z,18.50
2023-05-22T20:45:18.382Z,18.41
2023-05-22T20:47:46.868Z,18.38
2023-05-22T20:50:15.836Z,18.33
2023-05-22T20:52:46.083Z,18.25
2023-05-22T20:55:14.574Z,18.22
2023-05-22T20:57:42.731Z,18.18
2023-05-22T21:00:13.950Z,18.15
2023-05-22T21:02:44.198Z,18.10
2023-05-22T21:05:12.381Z,18.06
2023-05-22T21:07:40.531Z,17.97
2023-05-22T21:10:09.926Z,17.90
2023-05-22T21:12:38.105Z,17.90
2023-05-22T21:15:07.783Z,17.97
2023-05-22T21:17:35.994Z,18.01
2023-05-22T21:20:06.689Z,18.11
2023-05-22T21:22:34.777Z,18.09
2023-05-22T21:25:03.676Z,18.05
2023-05-22T21:27:32.139Z,17.99
2023-05-22T21:30:00.420Z,17.93
2023-05-22T21:32:29.038Z,17.86
2023-05-22T21:34:57.521Z,17.75
2023-05-22T21:37:27.266Z,17.61
2023-05-22T21:39:55.652Z,17.55
2023-05-22T21:42:26.239Z,17.48
2023-05-22T21:44:54.582Z,17.41
2023-05-22T21:47:24.753Z,17.36
2023-05-22T21:49:53.054Z,17.27
2023-05-22T21:52:21.162Z,17.25
2023-05-22T21:54:51.016Z,17.18
2023-05-22T21:57:19.349Z,17.19
2023-05-22T21:59:48.287Z,17.13
2023-05-22T22:02:16.613Z,17.07
2023-05-22T22:04:45.084Z,17.03
2023-05-22T22:07:14.173Z,17.02
2023-05-22T22:09:42.607Z,16.98
2023-05-22T22:12:12.852Z,16.95
2023-05-22T22:14:41.264Z,16.91
2023-05-22T22:17:09.712Z,16.83
2023-05-22T22:19:38.273Z,16.76
2023-05-22T22:22:07.156Z,16.73
2023-05-22T22:24:35.469Z,16.72
2023-05-22T22:27:03.769Z,16.72
2023-05-22T22:29:33.332Z,16.71
2023-05-22T22:32:01.576Z,16.71
2023-05-22T22:34:32.325Z,16.63
2023-05-22T22:37:00.474Z,16.62
2023-05-22T22:39:28.620Z,16.55
2023-05-22T22:42:01.321Z,16.54
2023-05-22T22:44:29.490Z,16.58
2023-05-22T22:46:59.394Z,16.56
2023-05-22T22:49:27.737Z,16.54
2023-05-22T22:51:56.425Z,16.48
2023-05-22T22:54:24.746Z,16.44
2023-05-22T22:56:55.665Z,16.41
2023-05-22T22:59:24.050Z,16.39
2023-05-22T23:01:52.396Z,16.38
2023-05-22T23:04:22.011Z,16.33
2023-05-22T23:06:50.523Z,16.32
2023-05-22T23:09:19.144Z,16.31
2023-05-22T23:11:47.600Z,16.27
2023-05-22T23:14:16.636Z,16.26
2023-05-22T23:16:45.229Z,16.25
2023-05-22T23:19:13.819Z,16.27
2023-05-22T23:21:43.557Z,16.24
2023-05-22T23:24:11.830Z,16.18
2023-05-22T23:26:40.364Z,16.13
2023-05-22T23:29:08.502Z,16.08
2023-05-22T23:31:37.014Z,16.06
2023-05-22T23:34:05.828Z,16.10
2023-05-22T23:36:34.025Z,16.07
2023-05-22T23:39:03.676Z,16.03
2023-05-22T23:41:32.658Z,16.04
2023-05-22T23:44:00.833Z,16.06
2023-05-22T23:46:29.667Z,16.04
2023-05-22T23:48:57.984Z,16.05
2023-05-22T23:51:26.176Z,16.00
2023-05-22T23:53:54.316Z,15.94
2023-05-22T23:56:23.861Z,15.90
2023-05-22T23:58:52.101Z,15.89
